Time;durP1;ratioP1;P1;durP2;ratioP2;P2;SDS_P1;SDS_P2;PMS_P1;PMS_P2;Temp;Humidity;BMP_temperature;BMP_pressure;BME280_temperature;BME280_humidity;BME280_pressure;Samples;Min_cycle;Max_cycle;Signal;HPM_P1;HPM_P2
2021/01/02 00:02:02;;;;;;;67.68;33.95;;;1.50;93.60;;;;;;4970061;28;20127;-79
2021/01/02 00:05:05;;;;;;;57.58;29.65;;;1.50;93.70;;;;;;4972840;28;20109;-79
2021/01/02 00:07:56;;;;;;;71.53;31.80;;;1.30;93.60;;;;;;4975980;28;20072;-79
2021/01/02 00:10:23;;;;;;;65.10;32.22;;;1.20;93.80;;;;;;4981690;28;20019;-80
2021/01/02 00:13:18;;;;;;;63.55;34.13;;;1.10;93.80;;;;;;4985270;28;20018;-81
2021/01/02 00:15:49;;;;;;;68.93;33.17;;;1.20;94.10;;;;;;4974358;28;20027;-81
2021/01/02 00:18:40;;;;;;;57.67;32.72;;;1.30;94.00;;;;;;4971922;28;20133;-80
2021/01/02 00:21:24;;;;;;;69.10;30.10;;;1.40;94.00;;;;;;4968911;28;20037;-81
2021/01/02 00:24:08;;;;;;;67.82;34.03;;;1.40;93.80;;;;;;4974313;28;20077;-80
2021/01/02 00:26:44;;;;;;;62.33;34.08;;;1.30;93.90;;;;;;4977816;28;20039;-81
2021/01/02 00:29:50;;;;;;;65.97;32.88;;;1.50;93.90;;;;;;4975224;28;20077;-82
2021/01/02 00:32:37;;;;;;;55.40;29.73;;;1.50;93.80;;;;;;4975018;28;20054;-80
2021/01/02 00:35:17;;;;;;;79.32;36.10;;;1.50;93.70;;;;;;4967232;28;20389;-81
2021/01/02 00:37:46;;;;;;;66.97;34.85;;;1.50;93.80;;;;;;4963436;28;20078;-80
2021/01/02 00:40:19;;;;;;;74.55;33.60;;;1.50;93.80;;;;;;4973224;28;20476;-80
2021/01/02 00:42:48;;;;;;;70.82;32.53;;;1.50;93.70;;;;;;4957047;28;20121;-81
2021/01/02 00:45:16;;;;;;;69.43;32.90;;;1.40;93.60;;;;;;4974760;28;20019;-82
2021/01/02 00:47:43;;;;;;;66.35;33.30;;;1.40;93.70;;;;;;4974688;28;20034;-80
2021/01/02 00:50:13;;;;;;;69.10;35.33;;;1.40;93.70;;;;;;4974992;28;20030;-80
2021/01/02 00:52:44;;;;;;;68.32;33.90;;;1.40;93.80;;;;;;4973870;28;20043;-80
2021/01/02 00:55:25;;;;;;;53.55;31.83;;;1.40;93.80;;;;;;4975335;28;20385;-79
2021/01/02 00:58:09;;;;;;;65.88;31.45;;;1.40;93.60;;;;;;4984499;28;20030;-79
2021/01/02 01:00:37;;;;;;;60.78;31.77;;;1.30;93.80;;;;;;4979559;28;20023;-80
2021/01/02 01:03:43;;;;;;;64.65;29.83;;;1.40;93.70;;;;;;4976018;28;20046;-81
2021/01/02 01:06:11;;;;;;;61.30;31.40;;;1.30;93.60;;;;;;4939120;28;20026;-80
2021/01/02 01:08:43;;;;;;;62.53;29.08;;;1.30;93.70;;;;;;4974798;28;20038;-81
2021/01/02 01:11:11;;;;;;;50.70;28.10;;;1.20;93.80;;;;;;4975110;28;20019;-80
2021/01/02 01:13:38;;;;;;;52.38;27.42;;;1.20;93.70;;;;;;4974757;28;20029;-81
2021/01/02 01:16:05;;;;;;;55.17;27.58;;;1.10;93.80;;;;;;4974973;28;20078;-80
2021/01/02 01:18:38;;;;;;;53.08;29.20;;;1.20;93.90;;;;;;4974573;28;20022;-81
2021/01/02 01:21:09;;;;;;;55.75;29.05;;;1.20;93.80;;;;;;4974513;28;20085;-81
2021/01/02 01:23:59;;;;;;;46.55;24.35;;;1.20;93.80;;;;;;4974368;28;20472;-81
2021/01/02 01:26:37;;;;;;;51.75;25.90;;;1.20;93.70;;;;;;4963360;28;20038;-81
2021/01/02 01:29:04;;;;;;;54.35;26.08;;;1.20;93.60;;;;;;4969491;28;20035;-81
2021/01/02 01:31:43;;;;;;;59.65;29.00;;;1.20;93.70;;;;;;4973639;28;20507;-80
2021/01/02 01:34:11;;;;;;;48.22;26.40;;;1.30;93.70;;;;;;4974328;28;20464;-82
2021/01/02 01:36:41;;;;;;;63.90;30.63;;;1.20;93.50;;;;;;4973647;28;20105;-80
2021/01/02 01:39:07;;;;;;;53.25;28.05;;;1.20;93.60;;;;;;4969044;28;20030;-81
2021/01/02 01:41:38;;;;;;;59.38;30.40;;;1.10;93.50;;;;;;4974630;28;20085;-81
2021/01/02 01:44:10;;;;;;;54.95;28.88;;;1.00;93.60;;;;;;4979166;28;20045;-80
2021/01/02 01:47:03;;;;;;;55.20;29.55;;;1.00;93.90;;;;;;4960942;28;20479;-81
2021/01/02 01:49:31;;;;;;;56.75;29.13;;;1.10;93.90;;;;;;4973939;28;20034;-80
2021/01/02 01:51:58;;;;;;;66.72;30.27;;;1.10;93.90;;;;;;4974441;28;20023;-81
2021/01/02 01:54:52;;;;;;;54.63;29.20;;;1.10;93.90;;;;;;4977563;28;20063;-82
2021/01/02 01:57:25;;;;;;;50.25;27.40;;;1.10;93.80;;;;;;4968415;28;20019;-79
2021/01/02 01:59:57;;;;;;;65.30;30.38;;;1.10;93.90;;;;;;4974806;28;20038;-79
2021/01/02 02:02:47;;;;;;;65.30;29.65;;;1.10;93.90;;;;;;4974547;28;20038;-82
2021/01/02 02:05:22;;;;;;;59.97;28.60;;;1.10;93.80;;;;;;4974252;28;20057;-81
2021/01/02 02:08:01;;;;;;;58.67;29.77;;;1.00;93.80;;;;;;4973999;28;20027;-81
2021/01/02 02:10:36;;;;;;;62.22;31.52;;;1.00;94.00;;;;;;4973839;28;20069;-81
2021/01/02 02:13:13;;;;;;;56.33;31.30;;;1.10;94.10;;;;;;4974091;28;20078;-80
2021/01/02 02:15:53;;;;;;;55.80;31.27;;;1.20;94.00;;;;;;4960941;28;20030;-80
2021/01/02 02:18:24;;;;;;;51.20;28.33;;;1.20;93.90;;;;;;4974756;28;20421;-79
2021/01/02 02:20:56;;;;;;;60.13;31.75;;;1.20;93.80;;;;;;4978165;28;20070;-80
2021/01/02 02:23:32;;;;;;;54.97;27.25;;;1.30;93.80;;;;;;4977744;28;20042;-82
2021/01/02 02:26:07;;;;;;;56.33;27.85;;;1.20;93.60;;;;;;4961566;28;20118;-82
2021/01/02 02:28:47;;;;;;;55.78;28.77;;;1.20;93.60;;;;;;4956502;28;20512;-81
2021/01/02 02:31:15;;;;;;;49.80;27.90;;;1.10;93.60;;;;;;4973687;28;20023;-80
2021/01/02 02:33:57;;;;;;;59.25;28.77;;;1.10;93.80;;;;;;4973582;28;20027;-82
2021/01/02 02:36:24;;;;;;;57.70;30.83;;;1.10;93.80;;;;;;4973585;28;20373;-80
2021/01/02 02:38:51;;;;;;;56.55;31.17;;;1.00;93.80;;;;;;4973896;28;20472;-81
2021/01/02 02:41:22;;;;;;;55.00;29.73;;;1.10;94.00;;;;;;4973930;28;20051;-79
2021/01/02 02:43:52;;;;;;;59.78;27.80;;;1.10;93.80;;;;;;4973807;28;20110;-80
2021/01/02 02:46:20;;;;;;;57.55;28.70;;;1.10;93.80;;;;;;4972741;28;20030;-80
2021/01/02 02:48:48;;;;;;;56.78;28.30;;;1.10;93.70;;;;;;4973698;28;20019;-81
2021/01/02 02:51:16;;;;;;;52.67;27.95;;;1.00;93.80;;;;;;4972357;28;20050;-80
2021/01/02 02:53:42;;;;;;;59.55;34.22;;;0.90;93.90;;;;;;4973958;28;20030;-80
2021/01/02 02:56:08;;;;;;;55.13;29.20;;;0.90;94.00;;;;;;4974273;28;20049;-80
2021/01/02 02:58:34;;;;;;;54.63;30.55;;;0.90;94.00;;;;;;4973887;28;20480;-80
2021/01/02 03:01:00;;;;;;;51.13;27.70;;;1.00;94.00;;;;;;4974597;28;20045;-79
2021/01/02 03:03:27;;;;;;;51.58;28.02;;;1.00;94.00;;;;;;4974860;28;20039;-79
2021/01/02 03:05:53;;;;;;;;;;;1.00;93.80;;;;;;4980331;28;20101;-80
2021/01/02 03:08:19;;;;;;;60.75;28.15;;;0.90;93.80;;;;;;4976934;28;19964;-79
2021/01/02 03:10:46;;;;;;;63.65;29.60;;;0.90;93.90;;;;;;4976963;28;20072;-79
2021/01/02 03:13:12;;;;;;;48.45;25.08;;;0.90;94.00;;;;;;4977063;28;20030;-80
2021/01/02 03:15:39;;;;;;;44.30;25.38;;;1.00;93.90;;;;;;4959589;28;20464;-80
2021/01/02 03:18:06;;;;;;;50.10;28.27;;;1.10;93.90;;;;;;4976870;28;20543;-78
2021/01/02 03:20:32;;;;;;;50.88;30.50;;;1.00;93.70;;;;;;4976474;28;20094;-79
2021/01/02 03:22:58;;;;;;;46.78;24.60;;;1.00;93.80;;;;;;4975451;28;20499;-78
2021/01/02 03:25:23;;;;;;;47.47;26.45;;;1.00;93.60;;;;;;4959105;28;20054;-79
2021/01/02 03:27:53;;;;;;;51.67;25.02;;;1.00;93.60;;;;;;4976846;28;20023;-79
2021/01/02 03:30:20;;;;;;;50.50;25.67;;;0.90;93.50;;;;;;4975224;28;20115;-79
2021/01/02 03:32:46;;;;;;;45.80;25.30;;;0.90;93.60;;;;;;4975386;28;20504;-80
2021/01/02 03:35:14;;;;;;;38.63;20.05;;;0.90;93.60;;;;;;4976482;28;20127;-79
2021/01/02 03:37:41;;;;;;;40.50;22.30;;;0.90;93.50;;;;;;4975273;28;20029;-81
2021/01/02 03:40:08;;;;;;;36.42;19.83;;;0.80;93.50;;;;;;4976665;28;20106;-80
2021/01/02 03:42:38;;;;;;;36.35;21.20;;;0.80;93.50;;;;;;4975630;28;20042;-79
2021/01/02 03:45:06;;;;;;;34.90;18.55;;;0.70;93.30;;;;;;4986474;28;20031;-79
2021/01/02 03:47:35;;;;;;;41.92;22.13;;;0.60;93.40;;;;;;4978418;28;20027;-79
2021/01/02 03:50:01;;;;;;;49.35;23.13;;;0.60;93.50;;;;;;4976406;28;20027;-79
2021/01/02 03:52:27;;;;;;;47.95;26.60;;;0.70;93.70;;;;;;4974919;28;20510;-78
2021/01/02 03:54:53;;;;;;;54.72;29.67;;;0.70;93.80;;;;;;4976256;28;20031;-79
2021/01/02 03:57:19;;;;;;;52.42;26.83;;;0.80;93.70;;;;;;4976315;28;20030;-80
2021/01/02 03:59:45;;;;;;;57.35;28.58;;;0.80;93.80;;;;;;4958577;28;20023;-79
2021/01/02 04:02:10;;;;;;;53.13;27.58;;;0.80;93.70;;;;;;4976354;28;20026;-81
2021/01/02 04:04:36;;;;;;;57.88;25.75;;;0.90;93.80;;;;;;4976053;28;20428;-79
2021/01/02 04:07:04;;;;;;;49.42;25.88;;;0.90;93.80;;;;;;4975671;28;20031;-78
2021/01/02 04:09:29;;;;;;;51.95;25.20;;;0.80;93.70;;;;;;4976147;28;20026;-81
2021/01/02 04:11:55;;;;;;;45.85;22.33;;;0.70;93.50;;;;;;4975673;28;20102;-81
2021/01/02 04:14:21;;;;;;;34.72;17.60;;;0.60;93.70;;;;;;4975915;28;20031;-79
2021/01/02 04:16:47;;;;;;;48.22;22.35;;;0.60;93.70;;;;;;4957630;28;20373;-79
2021/01/02 04:19:13;;;;;;;39.33;16.27;;;0.60;93.60;;;;;;4958947;28;20443;-80
2021/01/02 04:21:40;;;;;;;44.85;23.15;;;0.60;93.40;;;;;;4976236;28;20030;-79
2021/01/02 04:24:07;;;;;;;49.53;23.92;;;0.50;93.50;;;;;;4975114;28;20122;-79
2021/01/02 04:26:33;;;;;;;46.97;25.35;;;0.60;93.80;;;;;;4975726;28;20035;-80
2021/01/02 04:28:59;;;;;;;55.95;29.42;;;0.70;93.70;;;;;;4975346;28;20023;-79
2021/01/02 04:31:38;;;;;;;44.35;22.15;;;0.70;93.50;;;;;;4975516;28;20023;-80
2021/01/02 04:34:05;;;;;;;49.47;26.67;;;0.70;93.50;;;;;;4975264;28;20019;-80
2021/01/02 04:36:31;;;;;;;50.70;27.50;;;0.70;93.60;;;;;;4975745;28;20030;-79
2021/01/02 04:38:57;;;;;;;49.92;25.08;;;0.70;93.60;;;;;;4975154;28;20034;-79
2021/01/02 04:41:23;;;;;;;48.95;24.15;;;0.70;93.50;;;;;;4975446;28;20049;-81
2021/01/02 04:43:49;;;;;;;46.15;25.63;;;0.70;93.50;;;;;;4974928;28;20034;-80
2021/01/02 04:46:16;;;;;;;51.13;26.87;;;0.70;93.60;;;;;;4974514;28;20138;-80
2021/01/02 04:48:44;;;;;;;41.40;19.88;;;0.70;93.70;;;;;;4975256;28;20029;-81
2021/01/02 04:51:14;;;;;;;47.88;22.67;;;0.80;93.60;;;;;;4975945;28;20029;-79
2021/01/02 04:53:41;;;;;;;48.13;24.95;;;0.70;93.40;;;;;;4976724;28;20050;-79
2021/01/02 04:56:08;;;;;;;46.40;24.65;;;0.70;93.70;;;;;;4976596;28;20018;-80
2021/01/02 04:58:41;;;;;;;47.83;26.48;;;0.70;93.70;;;;;;4975984;28;20380;-81
2021/01/02 05:01:11;;;;;;;53.33;24.95;;;0.70;93.70;;;;;;4975256;28;20401;-81
2021/01/02 05:03:43;;;;;;;53.90;25.92;;;0.60;93.70;;;;;;4957464;28;20429;-80
2021/01/02 05:06:09;;;;;;;48.58;23.38;;;0.60;93.80;;;;;;4975419;28;20588;-81
2021/01/02 05:08:35;;;;;;;46.03;23.90;;;0.60;93.90;;;;;;4958733;28;20030;-80
2021/01/02 05:11:03;;;;;;;49.35;25.05;;;0.50;94.00;;;;;;4975394;28;20027;-81
2021/01/02 05:13:30;;;;;;;45.38;25.30;;;0.40;94.10;;;;;;4974997;28;20042;-81
2021/01/02 05:16:13;;;;;;;41.40;22.77;;;0.50;94.30;;;;;;4973665;28;20102;-82
2021/01/02 05:19:07;;;;;;;44.10;23.98;;;0.40;94.30;;;;;;4974764;28;20379;-81
2021/01/02 05:21:35;;;;;;;43.70;23.25;;;0.40;94.40;;;;;;4974591;28;20384;-82
2021/01/02 05:24:14;;;;;;;46.60;23.75;;;0.40;94.50;;;;;;4974394;28;20047;-82
2021/01/02 05:26:57;;;;;;;35.70;21.60;;;0.30;94.50;;;;;;4974574;28;20034;-82
2021/01/02 05:29:30;;;;;;;36.17;20.30;;;0.30;94.60;;;;;;4962167;28;20041;-81
2021/01/02 05:32:03;;;;;;;45.25;22.38;;;0.30;94.70;;;;;;4974239;28;20121;-82
2021/01/02 05:34:31;;;;;;;43.33;23.90;;;0.30;94.80;;;;;;4973969;28;20114;-82
2021/01/02 05:37:06;;;;;;;38.30;21.90;;;0.40;94.80;;;;;;4974256;28;20054;-82
2021/01/02 05:39:37;;;;;;;36.78;19.63;;;0.40;94.90;;;;;;4961873;28;20026;-83
2021/01/02 05:42:04;;;;;;;38.28;21.80;;;0.40;94.90;;;;;;4956952;28;20058;-82
2021/01/02 05:44:35;;;;;;;39.30;23.17;;;0.40;94.90;;;;;;4975175;28;20030;-82
2021/01/02 05:47:02;;;;;;;39.03;22.33;;;0.40;94.90;;;;;;4978578;28;20022;-85
2021/01/02 05:49:33;;;;;;;38.03;21.48;;;0.40;94.80;;;;;;4974893;28;20030;-84
2021/01/02 05:52:05;;;;;;;38.83;20.35;;;0.40;94.80;;;;;;4974410;28;20361;-82
2021/01/02 05:54:32;;;;;;;38.90;20.55;;;0.40;94.90;;;;;;4974598;28;20023;-82
2021/01/02 05:57:03;;;;;;;38.72;23.73;;;0.40;94.90;;;;;;4974923;28;20027;-84
2021/01/02 05:59:33;;;;;;;34.38;18.77;;;0.40;94.90;;;;;;4977426;28;20419;-82
2021/01/02 06:02:18;;;;;;;36.33;19.65;;;0.40;94.90;;;;;;4976731;28;20480;-85
2021/01/02 06:04:56;;;;;;;40.08;20.73;;;0.40;94.90;;;;;;4973932;28;20026;-85
2021/01/02 06:07:23;;;;;;;33.90;20.13;;;0.40;95.00;;;;;;4974031;28;20064;-86
2021/01/02 06:09:50;;;;;;;33.55;19.30;;;0.30;94.90;;;;;;4979854;28;20440;-84
2021/01/02 06:12:34;;;;;;;36.72;20.55;;;0.30;95.00;;;;;;4974955;28;20030;-86
2021/01/02 06:15:03;;;;;;;34.78;19.05;;;0.40;95.10;;;;;;4970199;28;20031;-83
2021/01/02 06:17:34;;;;;;;38.00;21.52;;;0.40;95.10;;;;;;4983191;28;20076;-83
2021/01/02 06:20:06;;;;;;;37.15;21.42;;;0.40;95.10;;;;;;4977385;28;20022;-85
2021/01/02 06:22:32;;;;;;;41.65;23.33;;;0.40;95.20;;;;;;4973744;28;20055;-86
2021/01/02 06:24:59;;;;;;;32.72;20.58;;;0.40;95.20;;;;;;4975232;28;20102;-85
2021/01/02 06:27:26;;;;;;;37.15;20.50;;;0.40;95.20;;;;;;4974995;28;20022;-88
2021/01/02 06:29:56;;;;;;;31.95;19.98;;;0.40;95.20;;;;;;4974718;28;20026;-86
2021/01/02 06:32:24;;;;;;;34.58;20.17;;;0.40;95.10;;;;;;4974615;28;20026;-86
2021/01/02 06:35:08;;;;;;;41.78;22.65;;;0.40;95.20;;;;;;4979113;28;20040;-87
2021/01/02 06:37:49;;;;;;;38.08;21.58;;;0.40;95.20;;;;;;4979744;28;20120;-86
2021/01/02 06:40:24;;;;;;;39.50;20.70;;;0.40;95.20;;;;;;4977801;28;20023;-86
2021/01/02 06:42:57;;;;;;;37.97;19.60;;;0.40;95.20;;;;;;4966076;28;20039;-83
2021/01/02 06:45:35;;;;;;;31.92;19.85;;;0.30;95.20;;;;;;4997723;28;20034;-82
2021/01/02 06:48:13;;;;;;;40.10;19.52;;;0.40;95.20;;;;;;4991191;28;20019;-84
2021/01/02 06:50:43;;;;;;;35.13;19.40;;;0.40;95.20;;;;;;4998927;28;20011;-85
2021/01/02 06:53:25;;;;;;;39.22;21.50;;;0.30;95.20;;;;;;4994587;28;20019;-82
2021/01/02 06:56:07;;;;;;;36.58;20.85;;;0.30;95.30;;;;;;4981396;28;20019;-84
2021/01/02 06:58:49;;;;;;;38.28;23.10;;;0.40;95.30;;;;;;4975583;28;20061;-83
2021/01/02 07:01:18;;;;;;;37.78;21.15;;;0.40;95.30;;;;;;4992717;28;20027;-83
2021/01/02 07:03:56;;;;;;;40.30;22.83;;;0.40;95.20;;;;;;4992868;28;20031;-85
2021/01/02 07:06:31;;;;;;;37.83;21.87;;;0.30;95.30;;;;;;4971162;28;20147;-84
2021/01/02 07:09:02;;;;;;;36.67;20.48;;;0.40;95.30;;;;;;4982984;28;20031;-83
2021/01/02 07:11:43;;;;;;;36.83;22.27;;;0.40;95.20;;;;;;4965555;28;20026;-85
2021/01/02 07:14:12;;;;;;;40.35;20.95;;;0.40;95.30;;;;;;4988139;28;20058;-83
2021/01/02 07:16:45;;;;;;;40.08;20.98;;;0.40;95.30;;;;;;4992018;28;20493;-83
2021/01/02 07:19:26;;;;;;;41.25;19.98;;;0.40;95.30;;;;;;4990453;28;20043;-82
2021/01/02 07:22:03;;;;;;;40.00;21.30;;;0.40;95.30;;;;;;4982238;28;20050;-86
2021/01/02 07:24:32;;;;;;;40.25;22.80;;;0.40;95.30;;;;;;4977237;28;20066;-84
2021/01/02 07:27:03;;;;;;;32.90;18.10;;;0.40;95.30;;;;;;4978240;28;20038;-85
2021/01/02 07:29:35;;;;;;;42.80;22.92;;;0.40;95.30;;;;;;4984614;28;20078;-83
2021/01/02 07:32:09;;;;;;;43.40;21.08;;;0.40;95.30;;;;;;4988726;28;20029;-85
2021/01/02 07:34:35;;;;;;;33.63;20.75;;;0.40;95.30;;;;;;4983868;28;20158;-82
2021/01/02 07:37:05;;;;;;;37.65;21.27;;;0.40;95.40;;;;;;4976843;28;20023;-84
2021/01/02 07:39:35;;;;;;;34.53;20.30;;;0.40;95.40;;;;;;4951543;28;20019;-83
2021/01/02 07:42:11;;;;;;;38.10;21.33;;;0.40;95.30;;;;;;4960932;28;20019;-81
2021/01/02 07:44:40;;;;;;;35.13;21.38;;;0.40;95.30;;;;;;4980437;28;20370;-83
2021/01/02 07:47:07;;;;;;;31.33;19.58;;;0.50;95.30;;;;;;4986292;28;20034;-81
2021/01/02 07:49:34;;;;;;;39.28;20.33;;;0.50;95.20;;;;;;4988436;28;20047;-82
2021/01/02 07:52:01;;;;;;;39.00;21.13;;;0.50;95.20;;;;;;4985915;28;20035;-82
2021/01/02 07:54:39;;;;;;;36.10;20.05;;;0.50;95.20;;;;;;4987129;28;20063;-84
2021/01/02 07:57:12;;;;;;;43.20;21.95;;;0.60;95.20;;;;;;4981982;28;20035;-86
2021/01/02 07:59:39;;;;;;;32.15;20.63;;;0.50;95.20;;;;;;4980035;28;20034;-84
2021/01/02 08:02:12;;;;;;;34.33;19.65;;;0.50;95.20;;;;;;4974985;28;20023;-82
2021/01/02 08:04:38;;;;;;;40.88;22.10;;;0.50;95.20;;;;;;4978852;28;20031;-82
2021/01/02 08:07:05;;;;;;;38.20;20.92;;;0.60;95.20;;;;;;4980520;28;20460;-85
2021/01/02 08:09:33;;;;;;;36.50;21.50;;;0.60;95.10;;;;;;4980995;28;20113;-87
2021/01/02 08:12:22;;;;;;;40.80;20.05;;;0.60;95.10;;;;;;4988577;28;20106;-88
2021/01/02 08:14:49;;;;;;;41.38;22.92;;;0.60;94.90;;;;;;4996268;28;20041;-87
2021/01/02 08:17:20;;;;;;;38.97;21.48;;;0.50;95.10;;;;;;4982389;28;20054;-89
2021/01/02 08:19:46;;;;;;;38.80;20.38;;;0.60;95.10;;;;;;4975683;28;20031;-91
2021/01/02 08:22:23;;;;;;;38.20;21.10;;;0.60;95.00;;;;;;4987828;28;20054;-90
2021/01/02 08:25:07;;;;;;;40.33;22.75;;;0.60;95.10;;;;;;4985222;28;20061;-90
2021/01/02 08:27:34;;;;;;;41.67;21.58;;;0.70;95.00;;;;;;4967366;28;20089;-89
2021/01/02 08:30:03;;;;;;;43.45;22.67;;;0.70;94.80;;;;;;4982053;28;20035;-89
2021/01/02 08:32:35;;;;;;;44.90;22.75;;;0.60;94.90;;;;;;4964416;29;20042;-90
2021/01/02 08:35:04;;;;;;;38.20;22.45;;;0.60;94.80;;;;;;4975935;28;20026;-89
2021/01/02 08:37:32;;;;;;;37.60;21.85;;;0.50;94.80;;;;;;4981152;28;20090;-91
2021/01/02 08:40:10;;;;;;;43.20;22.65;;;0.60;94.90;;;;;;4981200;28;20539;-86
2021/01/02 08:42:41;;;;;;;40.33;22.52;;;0.60;94.80;;;;;;4987725;28;20055;-86
2021/01/02 08:45:08;;;;;;;44.60;23.27;;;0.70;94.70;;;;;;4982738;28;20031;-87
2021/01/02 08:47:38;;;;;;;38.97;20.85;;;0.60;94.80;;;;;;4977576;28;20026;-87
2021/01/02 08:50:15;;;;;;;41.65;21.77;;;0.70;94.80;;;;;;4982513;28;20409;-83
2021/01/02 08:52:42;;;;;;;47.05;25.08;;;0.70;94.70;;;;;;4988605;28;20054;-85
2021/01/02 08:55:16;;;;;;;41.15;23.75;;;0.70;94.80;;;;;;4980496;28;20061;-86
2021/01/02 08:57:48;;;;;;;35.80;22.15;;;0.80;94.70;;;;;;4978935;28;20041;-83
2021/01/02 09:00:23;;;;;;;46.95;25.05;;;0.90;94.60;;;;;;4976518;28;20023;-82
2021/01/02 09:03:02;;;;;;;42.00;23.33;;;0.90;94.60;;;;;;4977139;28;20077;-86
2021/01/02 09:05:36;;;;;;;38.47;22.63;;;1.00;94.50;;;;;;4976119;28;20023;-87
2021/01/02 09:08:11;;;;;;;42.85;23.23;;;1.10;94.50;;;;;;4981798;28;20070;-87
2021/01/02 09:10:39;;;;;;;50.40;24.02;;;1.00;94.30;;;;;;4970173;28;20520;-86
2021/01/02 09:13:12;;;;;;;35.67;20.38;;;1.00;94.40;;;;;;4975313;28;20037;-86
2021/01/02 09:15:46;;;;;;;44.08;24.27;;;1.00;94.40;;;;;;4962602;28;20400;-85
2021/01/02 09:18:16;;;;;;;41.40;22.33;;;1.00;94.40;;;;;;4975758;28;20131;-85
2021/01/02 09:20:42;;;;;;;46.22;25.17;;;1.00;94.20;;;;;;4975805;28;20023;-85
2021/01/02 09:23:08;;;;;;;39.35;22.70;;;1.10;94.30;;;;;;4980921;28;20081;-84
2021/01/02 09:25:37;;;;;;;35.10;22.83;;;1.10;94.10;;;;;;4978337;28;20051;-85
2021/01/02 09:28:17;;;;;;;43.67;23.90;;;1.00;94.00;;;;;;4976990;28;20495;-85
2021/01/02 09:30:48;;;;;;;40.08;23.08;;;0.90;94.00;;;;;;4968014;28;20109;-88
2021/01/02 09:33:14;;;;;;;42.13;23.10;;;0.70;94.20;;;;;;4975049;28;20480;-84
2021/01/02 09:35:42;;;;;;;31.60;18.88;;;0.70;94.40;;;;;;4980952;28;20026;-85
2021/01/02 09:38:08;;;;;;;45.25;24.48;;;0.60;94.40;;;;;;4976952;28;20031;-87
2021/01/02 09:40:42;;;;;;;45.40;23.83;;;0.60;94.50;;;;;;4979546;28;20480;-86
2021/01/02 09:43:12;;;;;;;42.83;24.60;;;0.70;94.60;;;;;;4983762;28;20038;-86
2021/01/02 09:45:39;;;;;;;37.45;20.77;;;0.80;94.50;;;;;;4981393;28;20019;-87
2021/01/02 09:48:10;;;;;;;44.03;22.10;;;0.80;94.30;;;;;;4985347;28;20019;-86
2021/01/02 09:50:36;;;;;;;39.65;21.40;;;0.70;94.30;;;;;;4990821;28;20265;-85
2021/01/02 09:53:05;;;;;;;39.13;21.42;;;0.80;94.50;;;;;;4977094;28;20451;-87
2021/01/02 09:55:31;;;;;;;37.92;22.38;;;0.80;94.30;;;;;;4966091;28;20027;-88
2021/01/02 09:57:57;;;;;;;41.65;21.58;;;0.90;94.50;;;;;;4962846;28;20038;-88
2021/01/02 10:00:27;;;;;;;32.55;20.65;;;0.90;94.30;;;;;;4981918;28;20030;-89
2021/01/02 10:02:53;;;;;;;40.15;22.60;;;0.80;94.30;;;;;;4980028;28;20066;-87
2021/01/02 10:05:23;;;;;;;45.58;22.00;;;0.90;94.30;;;;;;4973991;28;20023;-86
2021/01/02 10:07:52;;;;;;;34.05;22.88;;;0.80;94.30;;;;;;4976693;28;20424;-87
2021/01/02 10:10:18;;;;;;;37.38;22.17;;;0.80;94.30;;;;;;4978072;28;20023;-86
2021/01/02 10:12:46;;;;;;;37.38;22.40;;;0.80;94.40;;;;;;4979894;28;20480;-89
2021/01/02 10:15:13;;;;;;;43.67;21.42;;;0.80;94.60;;;;;;4973643;28;20028;-87
2021/01/02 10:17:39;;;;;;;34.22;21.48;;;0.90;94.50;;;;;;4981857;28;20026;-86
2021/01/02 10:20:07;;;;;;;37.70;21.88;;;1.00;94.50;;;;;;4980862;28;20026;-86
2021/01/02 10:22:33;;;;;;;35.42;21.60;;;1.00;94.30;;;;;;4981167;28;20035;-86
2021/01/02 10:24:59;;;;;;;35.28;20.73;;;1.00;94.40;;;;;;4985590;28;20053;-86
2021/01/02 10:27:26;;;;;;;41.08;21.30;;;1.00;94.30;;;;;;4983884;28;20062;-87
2021/01/02 10:29:54;;;;;;;40.87;20.97;;;1.00;94.20;;;;;;4978857;28;20054;-85
2021/01/02 10:32:22;;;;;;;41.88;22.25;;;0.90;94.10;;;;;;4979546;28;20038;-85
2021/01/02 10:34:53;;;;;;;39.22;21.67;;;0.80;94.40;;;;;;4982436;28;20078;-86
2021/01/02 10:37:24;;;;;;;44.00;23.95;;;0.80;94.50;;;;;;4970381;28;20441;-86
2021/01/02 10:39:50;;;;;;;37.30;21.65;;;0.90;94.60;;;;;;4972720;28;20026;-87
2021/01/02 10:42:21;;;;;;;38.35;21.33;;;0.90;94.40;;;;;;4984447;28;20015;-85
2021/01/02 10:44:47;;;;;;;39.33;21.65;;;0.90;94.40;;;;;;4986321;28;20054;-86
2021/01/02 10:47:24;;;;;;;44.17;23.10;;;0.90;94.20;;;;;;4983207;28;20022;-85
2021/01/02 10:49:50;;;;;;;40.65;23.10;;;1.00;94.30;;;;;;4992019;28;20017;-85
2021/01/02 10:52:21;;;;;;;39.03;19.58;;;1.00;94.10;;;;;;4997772;28;20031;-85
2021/01/02 10:54:51;;;;;;;37.65;22.13;;;1.00;94.00;;;;;;4992466;28;20046;-87
2021/01/02 10:57:19;;;;;;;34.65;21.67;;;0.90;94.10;;;;;;4977684;28;20038;-85
2021/01/02 10:59:51;;;;;;;37.75;21.52;;;0.90;94.40;;;;;;4984795;28;20103;-86
2021/01/02 11:02:17;;;;;;;39.92;22.17;;;0.90;94.10;;;;;;4982016;28;20030;-84
2021/01/02 11:04:43;;;;;;;38.22;21.77;;;0.80;94.20;;;;;;4982546;28;20070;-85
2021/01/02 11:07:10;;;;;;;37.38;22.23;;;0.80;94.40;;;;;;4981069;28;20118;-85
2021/01/02 11:09:36;;;;;;;40.72;23.20;;;0.80;94.40;;;;;;4984146;28;20038;-87
2021/01/02 11:12:03;;;;;;;37.83;21.85;;;0.80;94.50;;;;;;4990110;28;20037;-88
2021/01/02 11:14:28;;;;;;;40.50;22.13;;;0.80;94.60;;;;;;4988185;28;20023;-87
2021/01/02 11:16:55;;;;;;;36.10;21.83;;;0.80;94.60;;;;;;4989610;28;20033;-85
2021/01/02 11:19:24;;;;;;;38.42;21.95;;;0.80;94.60;;;;;;4984946;28;20023;-83
2021/01/02 11:21:53;;;;;;;45.33;23.75;;;0.80;94.70;;;;;;4964600;28;20057;-85
2021/01/02 11:24:31;;;;;;;42.17;22.48;;;0.80;94.60;;;;;;4971838;28;20031;-84
2021/01/02 11:26:59;;;;;;;38.65;23.17;;;0.70;94.70;;;;;;4979659;28;20085;-84
2021/01/02 11:29:28;;;;;;;40.60;23.20;;;0.70;94.80;;;;;;4984350;28;20027;-84
2021/01/02 11:31:54;;;;;;;49.03;23.50;;;0.70;94.90;;;;;;4983049;28;20042;-86
2021/01/02 11:34:21;;;;;;;44.13;22.52;;;0.70;94.80;;;;;;4972282;28;20027;-85
2021/01/02 11:36:55;;;;;;;42.25;23.70;;;0.70;94.90;;;;;;4972640;28;20114;-85
2021/01/02 11:39:22;;;;;;;40.65;23.20;;;0.70;95.00;;;;;;5004753;28;20026;-87
2021/01/02 11:41:48;;;;;;;44.97;23.60;;;0.70;95.00;;;;;;4991644;28;20034;-87
2021/01/02 11:44:18;;;;;;;38.78;22.20;;;0.70;95.10;;;;;;4980797;28;20050;-88
2021/01/02 11:46:49;;;;;;;42.10;23.80;;;0.70;95.10;;;;;;4980319;28;20093;-86
2021/01/02 11:49:18;;;;;;;45.60;24.30;;;0.80;95.00;;;;;;4970635;28;20047;-85
2021/01/02 11:51:51;;;;;;;44.42;24.98;;;0.70;95.00;;;;;;4997130;28;20103;-88
2021/01/02 11:54:18;;;;;;;40.45;21.95;;;0.70;95.10;;;;;;4979563;28;20508;-85
2021/01/02 11:56:44;;;;;;;49.00;25.77;;;0.80;95.10;;;;;;4975841;28;20162;-87
2021/01/02 11:59:11;;;;;;;;;;;0.70;95.10;;;;;;4976340;28;20066;-85
2021/01/02 12:01:42;;;;;;;44.67;24.27;;;0.70;95.10;;;;;;4977245;28;19977;-87
2021/01/02 12:04:11;;;;;;;46.00;23.40;;;0.60;95.20;;;;;;4970900;28;20042;-87
2021/01/02 12:06:37;;;;;;;50.10;25.25;;;0.60;95.30;;;;;;4976851;28;20090;-84
2021/01/02 12:09:06;;;;;;;52.17;27.52;;;0.70;95.60;;;;;;4993826;28;20028;-89
2021/01/02 12:11:34;;;;;;;48.53;25.48;;;0.80;95.20;;;;;;4967025;28;20042;-90
2021/01/02 12:14:01;;;;;;;42.70;24.52;;;0.90;95.10;;;;;;4976855;28;20030;-87
2021/01/02 12:16:36;;;;;;;50.50;25.10;;;0.90;95.00;;;;;;4977966;28;20035;-85
2021/01/02 12:19:04;;;;;;;46.17;25.02;;;0.90;95.10;;;;;;4975799;28;20034;-85
2021/01/02 12:21:30;;;;;;;45.63;25.27;;;0.90;95.10;;;;;;4988177;28;20035;-86
2021/01/02 12:23:56;;;;;;;49.35;28.00;;;1.00;95.10;;;;;;4977593;28;20049;-85
2021/01/02 12:26:22;;;;;;;45.65;25.20;;;1.10;95.00;;;;;;4981050;28;20489;-84
2021/01/02 12:28:49;;;;;;;45.10;23.10;;;1.10;94.90;;;;;;4981321;28;20019;-86
2021/01/02 12:31:20;;;;;;;48.45;25.20;;;1.00;94.80;;;;;;4997868;28;20042;-88
2021/01/02 12:33:47;;;;;;;50.53;27.35;;;1.00;95.00;;;;;;4988964;28;20524;-86
2021/01/02 12:36:14;;;;;;;42.47;23.17;;;1.00;95.00;;;;;;4965708;28;20030;-84
2021/01/02 12:38:42;;;;;;;61.72;30.60;;;1.00;95.00;;;;;;4983061;28;20023;-87
2021/01/02 12:41:17;;;;;;;44.75;23.48;;;0.90;95.00;;;;;;4977655;28;20034;-88
2021/01/02 12:43:44;;;;;;;48.53;25.30;;;0.90;95.10;;;;;;4971183;28;20035;-88
2021/01/02 12:46:11;;;;;;;49.28;24.92;;;0.90;95.30;;;;;;4969910;28;20432;-89
2021/01/02 12:48:38;;;;;;;37.17;22.55;;;0.90;95.30;;;;;;4978473;28;20098;-85
2021/01/02 12:51:05;;;;;;;43.42;23.55;;;0.80;95.30;;;;;;4970352;28;20018;-87
2021/01/02 12:53:31;;;;;;;45.22;23.67;;;0.90;95.40;;;;;;4988899;28;20039;-83
2021/01/02 12:55:57;;;;;;;40.65;24.73;;;1.00;95.40;;;;;;4981283;28;20165;-91
2021/01/02 12:58:26;;;;;;;37.20;20.23;;;1.00;95.40;;;;;;4981371;28;20058;-88